sensor_id;sensor_type;location;lat;lon;timestamp;P1;durP1;ratioP1;P2;durP2;ratioP2
76604;SDS011;73179;50.978;16.998;2024-01-07T00:01:58;11.63;;;6.57;;
76604;SDS011;73179;50.978;16.998;2024-01-07T00:04:25;15.68;;;7.53;;
76604;SDS011;73179;50.978;16.998;2024-01-07T00:06:51;14.65;;;7.80;;
76604;SDS011;73179;50.978;16.998;2024-01-07T00:09:17;14.25;;;9.13;;
76604;SDS011;73179;50.978;16.998;2024-01-07T00:11:43;17.42;;;8.27;;
76604;SDS011;73179;50.978;16.998;2024-01-07T00:14:10;12.57;;;7.88;;
76604;SDS011;73179;50.978;16.998;2024-01-07T00:16:36;12.18;;;7.05;;
76604;SDS011;73179;50.978;16.998;2024-01-07T00:19:02;16.92;;;9.27;;
76604;SDS011;73179;50.978;16.998;2024-01-07T00:21:28;15.27;;;9.45;;
76604;SDS011;73179;50.978;16.998;2024-01-07T00:23:54;17.17;;;8.25;;
76604;SDS011;73179;50.978;16.998;2024-01-07T00:26:20;14.90;;;7.78;;
76604;SDS011;73179;50.978;16.998;2024-01-07T00:28:46;21.42;;;10.43;;
76604;SDS011;73179;50.978;16.998;2024-01-07T00:31:12;13.48;;;7.60;;
76604;SDS011;73179;50.978;16.998;2024-01-07T00:33:39;14.50;;;8.13;;
76604;SDS011;73179;50.978;16.998;2024-01-07T00:36:05;14.45;;;8.73;;
76604;SDS011;73179;50.978;16.998;2024-01-07T00:38:31;16.02;;;9.10;;
76604;SDS011;73179;50.978;16.998;2024-01-07T00:40:57;17.77;;;10.45;;
76604;SDS011;73179;50.978;16.998;2024-01-07T00:43:23;15.30;;;9.30;;
76604;SDS011;73179;50.978;16.998;2024-01-07T00:45:49;14.75;;;8.55;;
76604;SDS011;73179;50.978;16.998;2024-01-07T00:48:15;14.15;;;7.30;;
76604;SDS011;73179;50.978;16.998;2024-01-07T00:50:42;17.30;;;10.30;;
76604;SDS011;73179;50.978;16.998;2024-01-07T00:53:08;16.15;;;10.73;;
76604;SDS011;73179;50.978;16.998;2024-01-07T00:55:34;16.17;;;9.50;;
76604;SDS011;73179;50.978;16.998;2024-01-07T00:58:03;17.42;;;9.43;;
76604;SDS011;73179;50.978;16.998;2024-01-07T01:00:29;15.05;;;8.50;;
76604;SDS011;73179;50.978;16.998;2024-01-07T01:02:56;14.82;;;7.57;;
76604;SDS011;73179;50.978;16.998;2024-01-07T01:05:22;15.77;;;8.63;;
76604;SDS011;73179;50.978;16.998;2024-01-07T01:07:48;15.07;;;9.73;;
76604;SDS011;73179;50.978;16.998;2024-01-07T01:10:14;13.75;;;8.32;;
76604;SDS011;73179;50.978;16.998;2024-01-07T01:12:43;14.55;;;8.70;;
76604;SDS011;73179;50.978;16.998;2024-01-07T01:15:09;14.70;;;7.75;;
76604;SDS011;73179;50.978;16.998;2024-01-07T01:17:35;15.95;;;10.25;;
76604;SDS011;73179;50.978;16.998;2024-01-07T01:20:01;17.58;;;9.13;;
76604;SDS011;73179;50.978;16.998;2024-01-07T01:22:28;16.85;;;8.52;;
76604;SDS011;73179;50.978;16.998;2024-01-07T01:24:54;13.77;;;8.45;;
76604;SDS011;73179;50.978;16.998;2024-01-07T01:27:22;14.50;;;8.43;;
76604;SDS011;73179;50.978;16.998;2024-01-07T01:29:47;16.20;;;9.68;;
76604;SDS011;73179;50.978;16.998;2024-01-07T01:32:14;14.38;;;8.35;;
76604;SDS011;73179;50.978;16.998;2024-01-07T01:37:07;15.32;;;8.13;;
76604;SDS011;73179;50.978;16.998;2024-01-07T01:39:34;14.07;;;7.93;;
76604;SDS011;73179;50.978;16.998;2024-01-07T01:42:00;20.33;;;10.43;;
76604;SDS011;73179;50.978;16.998;2024-01-07T01:44:26;19.20;;;10.68;;
76604;SDS011;73179;50.978;16.998;2024-01-07T01:46:57;18.58;;;11.07;;
76604;SDS011;73179;50.978;16.998;2024-01-07T01:49:24;16.23;;;8.27;;
76604;SDS011;73179;50.978;16.998;2024-01-07T01:51:50;17.90;;;9.43;;
76604;SDS011;73179;50.978;16.998;2024-01-07T01:54:19;17.88;;;9.98;;
76604;SDS011;73179;50.978;16.998;2024-01-07T01:56:46;19.13;;;9.95;;
76604;SDS011;73179;50.978;16.998;2024-01-07T01:59:14;15.20;;;8.63;;
76604;SDS011;73179;50.978;16.998;2024-01-07T02:01:40;16.92;;;8.00;;
76604;SDS011;73179;50.978;16.998;2024-01-07T02:04:07;14.00;;;6.45;;
76604;SDS011;73179;50.978;16.998;2024-01-07T02:06:34;14.15;;;7.57;;
76604;SDS011;73179;50.978;16.998;2024-01-07T02:09:02;15.48;;;9.05;;
76604;SDS011;73179;50.978;16.998;2024-01-07T02:11:28;13.15;;;7.25;;
76604;SDS011;73179;50.978;16.998;2024-01-07T02:13:54;15.70;;;10.13;;
76604;SDS011;73179;50.978;16.998;2024-01-07T02:16:20;16.45;;;9.02;;
76604;SDS011;73179;50.978;16.998;2024-01-07T02:18:46;18.80;;;10.63;;
76604;SDS011;73179;50.978;16.998;2024-01-07T02:21:15;16.80;;;8.65;;
76604;SDS011;73179;50.978;16.998;2024-01-07T02:23:41;16.08;;;8.90;;
76604;SDS011;73179;50.978;16.998;2024-01-07T02:26:07;16.05;;;8.43;;
76604;SDS011;73179;50.978;16.998;2024-01-07T02:28:34;16.15;;;9.82;;
76604;SDS011;73179;50.978;16.998;2024-01-07T02:31:00;14.90;;;7.55;;
76604;SDS011;73179;50.978;16.998;2024-01-07T02:33:26;17.35;;;7.32;;
76604;SDS011;73179;50.978;16.998;2024-01-07T02:35:52;15.05;;;8.68;;
76604;SDS011;73179;50.978;16.998;2024-01-07T02:38:18;13.32;;;7.30;;
76604;SDS011;73179;50.978;16.998;2024-01-07T02:40:44;13.27;;;7.65;;
76604;SDS011;73179;50.978;16.998;2024-01-07T02:43:10;19.98;;;10.73;;
76604;SDS011;73179;50.978;16.998;2024-01-07T02:45:36;16.90;;;10.77;;
76604;SDS011;73179;50.978;16.998;2024-01-07T02:48:02;15.77;;;10.25;;
76604;SDS011;73179;50.978;16.998;2024-01-07T02:50:28;15.77;;;8.43;;
76604;SDS011;73179;50.978;16.998;2024-01-07T02:52:54;13.05;;;8.50;;
76604;SDS011;73179;50.978;16.998;2024-01-07T02:55:20;13.90;;;8.18;;
76604;SDS011;73179;50.978;16.998;2024-01-07T02:57:47;16.30;;;8.80;;
76604;SDS011;73179;50.978;16.998;2024-01-07T03:02:39;21.05;;;11.93;;
76604;SDS011;73179;50.978;16.998;2024-01-07T03:07:31;23.65;;;13.48;;
76604;SDS011;73179;50.978;16.998;2024-01-07T03:12:23;19.63;;;10.43;;
76604;SDS011;73179;50.978;16.998;2024-01-07T03:14:49;15.40;;;9.38;;
76604;SDS011;73179;50.978;16.998;2024-01-07T03:17:15;18.98;;;9.90;;
76604;SDS011;73179;50.978;16.998;2024-01-07T03:19:42;22.48;;;10.63;;
76604;SDS011;73179;50.978;16.998;2024-01-07T03:22:09;15.98;;;8.85;;
76604;SDS011;73179;50.978;16.998;2024-01-07T03:24:35;13.38;;;9.00;;
76604;SDS011;73179;50.978;16.998;2024-01-07T03:27:01;19.20;;;10.90;;
76604;SDS011;73179;50.978;16.998;2024-01-07T03:29:27;18.30;;;9.60;;
76604;SDS011;73179;50.978;16.998;2024-01-07T03:31:53;19.33;;;10.95;;
76604;SDS011;73179;50.978;16.998;2024-01-07T03:34:19;18.15;;;9.30;;
76604;SDS011;73179;50.978;16.998;2024-01-07T03:36:45;11.63;;;7.97;;
76604;SDS011;73179;50.978;16.998;2024-01-07T03:39:11;13.75;;;8.35;;
76604;SDS011;73179;50.978;16.998;2024-01-07T03:41:37;18.27;;;10.43;;
76604;SDS011;73179;50.978;16.998;2024-01-07T03:44:03;20.48;;;10.07;;
76604;SDS011;73179;50.978;16.998;2024-01-07T03:46:30;21.00;;;9.40;;
76604;SDS011;73179;50.978;16.998;2024-01-07T03:48:56;16.98;;;10.07;;
76604;SDS011;73179;50.978;16.998;2024-01-07T03:51:22;15.68;;;8.98;;
76604;SDS011;73179;50.978;16.998;2024-01-07T03:53:48;17.73;;;10.10;;
76604;SDS011;73179;50.978;16.998;2024-01-07T03:56:14;16.08;;;9.30;;
76604;SDS011;73179;50.978;16.998;2024-01-07T03:58:41;18.15;;;9.50;;
76604;SDS011;73179;50.978;16.998;2024-01-07T04:01:06;17.92;;;9.82;;
76604;SDS011;73179;50.978;16.998;2024-01-07T04:03:33;12.80;;;8.32;;
76604;SDS011;73179;50.978;16.998;2024-01-07T04:08:24;18.02;;;10.40;;
76604;SDS011;73179;50.978;16.998;2024-01-07T04:10:50;16.90;;;10.07;;
76604;SDS011;73179;50.978;16.998;2024-01-07T04:13:16;16.05;;;9.93;;
76604;SDS011;73179;50.978;16.998;2024-01-07T04:18:08;16.50;;;10.25;;
76604;SDS011;73179;50.978;16.998;2024-01-07T04:20:35;17.52;;;10.07;;
76604;SDS011;73179;50.978;16.998;2024-01-07T04:23:01;21.95;;;9.38;;
76604;SDS011;73179;50.978;16.998;2024-01-07T04:25:27;24.25;;;10.32;;
76604;SDS011;73179;50.978;16.998;2024-01-07T04:27:53;20.52;;;10.52;;
76604;SDS011;73179;50.978;16.998;2024-01-07T04:32:45;19.02;;;9.93;;
76604;SDS011;73179;50.978;16.998;2024-01-07T04:37:37;12.45;;;6.95;;
76604;SDS011;73179;50.978;16.998;2024-01-07T04:40:04;13.02;;;7.15;;
76604;SDS011;73179;50.978;16.998;2024-01-07T04:42:30;15.48;;;9.52;;
76604;SDS011;73179;50.978;16.998;2024-01-07T04:49:55;18.75;;;9.02;;
76604;SDS011;73179;50.978;16.998;2024-01-07T04:52:22;15.10;;;8.10;;
76604;SDS011;73179;50.978;16.998;2024-01-07T04:54:51;12.55;;;7.30;;
76604;SDS011;73179;50.978;16.998;2024-01-07T04:57:18;15.82;;;7.60;;
76604;SDS011;73179;50.978;16.998;2024-01-07T04:59:45;14.50;;;9.75;;
76604;SDS011;73179;50.978;16.998;2024-01-07T05:02:16;12.65;;;7.50;;
76604;SDS011;73179;50.978;16.998;2024-01-07T05:04:42;20.10;;;10.80;;
76604;SDS011;73179;50.978;16.998;2024-01-07T05:07:08;17.23;;;9.02;;
76604;SDS011;73179;50.978;16.998;2024-01-07T05:12:00;19.00;;;8.27;;
76604;SDS011;73179;50.978;16.998;2024-01-07T05:16:53;11.48;;;7.65;;
76604;SDS011;73179;50.978;16.998;2024-01-07T05:19:20;16.75;;;8.70;;
76604;SDS011;73179;50.978;16.998;2024-01-07T05:21:46;18.27;;;8.95;;
76604;SDS011;73179;50.978;16.998;2024-01-07T05:26:41;11.30;;;7.75;;
76604;SDS011;73179;50.978;16.998;2024-01-07T05:29:08;14.55;;;7.70;;
76604;SDS011;73179;50.978;16.998;2024-01-07T05:31:34;15.88;;;9.10;;
76604;SDS011;73179;50.978;16.998;2024-01-07T05:36:26;15.73;;;7.82;;
76604;SDS011;73179;50.978;16.998;2024-01-07T05:41:18;13.82;;;8.13;;
76604;SDS011;73179;50.978;16.998;2024-01-07T05:46:10;12.13;;;8.02;;
76604;SDS011;73179;50.978;16.998;2024-01-07T05:48:41;12.95;;;6.88;;
76604;SDS011;73179;50.978;16.998;2024-01-07T05:51:12;10.73;;;6.88;;
76604;SDS011;73179;50.978;16.998;2024-01-07T05:53:42;9.43;;;6.55;;
76604;SDS011;73179;50.978;16.998;2024-01-07T05:56:09;11.43;;;6.78;;
76604;SDS011;73179;50.978;16.998;2024-01-07T06:01:01;9.77;;;6.50;;
76604;SDS011;73179;50.978;16.998;2024-01-07T06:03:27;12.60;;;8.65;;
76604;SDS011;73179;50.978;16.998;2024-01-07T06:05:54;9.73;;;6.38;;
76604;SDS011;73179;50.978;16.998;2024-01-07T06:10:45;11.07;;;7.88;;
76604;SDS011;73179;50.978;16.998;2024-01-07T06:13:12;11.93;;;7.25;;
76604;SDS011;73179;50.978;16.998;2024-01-07T06:15:38;10.65;;;7.22;;
76604;SDS011;73179;50.978;16.998;2024-01-07T06:20:30;11.63;;;6.35;;
76604;SDS011;73179;50.978;16.998;2024-01-07T06:25:22;9.55;;;5.65;;
76604;SDS011;73179;50.978;16.998;2024-01-07T06:27:50;12.02;;;6.78;;
76604;SDS011;73179;50.978;16.998;2024-01-07T06:30:16;13.77;;;6.70;;
76604;SDS011;73179;50.978;16.998;2024-01-07T06:32:44;8.77;;;6.03;;
76604;SDS011;73179;50.978;16.998;2024-01-07T06:35:11;7.57;;;5.05;;
76604;SDS011;73179;50.978;16.998;2024-01-07T06:40:03;8.88;;;5.95;;
76604;SDS011;73179;50.978;16.998;2024-01-07T06:42:29;8.73;;;5.20;;
76604;SDS011;73179;50.978;16.998;2024-01-07T06:44:56;11.00;;;5.82;;
76604;SDS011;73179;50.978;16.998;2024-01-07T06:49:48;6.82;;;4.05;;
76604;SDS011;73179;50.978;16.998;2024-01-07T06:54:40;9.60;;;6.22;;
76604;SDS011;73179;50.978;16.998;2024-01-07T06:59:32;5.28;;;4.35;;
76604;SDS011;73179;50.978;16.998;2024-01-07T07:04:24;8.68;;;5.07;;
76604;SDS011;73179;50.978;16.998;2024-01-07T07:09:16;13.23;;;6.97;;
76604;SDS011;73179;50.978;16.998;2024-01-07T07:14:08;13.38;;;8.70;;
76604;SDS011;73179;50.978;16.998;2024-01-07T07:19:00;11.93;;;5.82;;
76604;SDS011;73179;50.978;16.998;2024-01-07T07:21:26;8.23;;;5.47;;
76604;SDS011;73179;50.978;16.998;2024-01-07T07:23:53;8.07;;;5.32;;
76604;SDS011;73179;50.978;16.998;2024-01-07T07:28:48;5.63;;;4.07;;
76604;SDS011;73179;50.978;16.998;2024-01-07T07:31:15;7.53;;;4.28;;
76604;SDS011;73179;50.978;16.998;2024-01-07T07:33:41;10.40;;;6.25;;
76604;SDS011;73179;50.978;16.998;2024-01-07T07:36:08;8.88;;;4.30;;
76604;SDS011;73179;50.978;16.998;2024-01-07T07:38:34;6.70;;;4.60;;
76604;SDS011;73179;50.978;16.998;2024-01-07T07:41:00;8.25;;;4.85;;
76604;SDS011;73179;50.978;16.998;2024-01-07T07:43:27;8.55;;;5.25;;
76604;SDS011;73179;50.978;16.998;2024-01-07T07:45:53;11.45;;;5.25;;
76604;SDS011;73179;50.978;16.998;2024-01-07T07:48:20;6.15;;;4.05;;
76604;SDS011;73179;50.978;16.998;2024-01-07T07:53:12;3.55;;;3.05;;
76604;SDS011;73179;50.978;16.998;2024-01-07T07:58:04;7.78;;;4.97;;
76604;SDS011;73179;50.978;16.998;2024-01-07T08:02:56;4.22;;;2.78;;
76604;SDS011;73179;50.978;16.998;2024-01-07T08:07:48;5.65;;;3.67;;
76604;SDS011;73179;50.978;16.998;2024-01-07T08:12:40;4.95;;;3.47;;
76604;SDS011;73179;50.978;16.998;2024-01-07T08:17:33;9.00;;;4.22;;
76604;SDS011;73179;50.978;16.998;2024-01-07T08:22:25;4.68;;;3.10;;
76604;SDS011;73179;50.978;16.998;2024-01-07T08:27:17;3.85;;;2.88;;
76604;SDS011;73179;50.978;16.998;2024-01-07T08:32:09;5.07;;;3.65;;
76604;SDS011;73179;50.978;16.998;2024-01-07T08:34:35;4.78;;;3.83;;
76604;SDS011;73179;50.978;16.998;2024-01-07T08:37:03;3.08;;;2.05;;
76604;SDS011;73179;50.978;16.998;2024-01-07T08:41:56;4.43;;;2.65;;
76604;SDS011;73179;50.978;16.998;2024-01-07T08:46:50;5.30;;;3.47;;
76604;SDS011;73179;50.978;16.998;2024-01-07T08:51:42;5.88;;;3.83;;
76604;SDS011;73179;50.978;16.998;2024-01-07T08:54:08;5.07;;;3.75;;
76604;SDS011;73179;50.978;16.998;2024-01-07T08:56:34;6.32;;;3.88;;
76604;SDS011;73179;50.978;16.998;2024-01-07T08:59:01;5.70;;;3.47;;
76604;SDS011;73179;50.978;16.998;2024-01-07T09:01:27;5.68;;;3.92;;
76604;SDS011;73179;50.978;16.998;2024-01-07T09:03:54;4.57;;;3.97;;
76604;SDS011;73179;50.978;16.998;2024-01-07T09:06:21;7.65;;;4.15;;
76604;SDS011;73179;50.978;16.998;2024-01-07T09:08:47;11.10;;;6.57;;
76604;SDS011;73179;50.978;16.998;2024-01-07T09:11:14;8.27;;;4.72;;
76604;SDS011;73179;50.978;16.998;2024-01-07T09:13:44;8.52;;;5.18;;
76604;SDS011;73179;50.978;16.998;2024-01-07T09:16:14;7.15;;;4.22;;
76604;SDS011;73179;50.978;16.998;2024-01-07T09:18:40;6.25;;;4.07;;
76604;SDS011;73179;50.978;16.998;2024-01-07T09:21:07;9.15;;;5.20;;
76604;SDS011;73179;50.978;16.998;2024-01-07T09:26:02;5.75;;;4.25;;
76604;SDS011;73179;50.978;16.998;2024-01-07T09:30:54;7.13;;;3.60;;
76604;SDS011;73179;50.978;16.998;2024-01-07T09:35:49;6.38;;;4.28;;
76604;SDS011;73179;50.978;16.998;2024-01-07T09:38:15;15.90;;;8.25;;
76604;SDS011;73179;50.978;16.998;2024-01-07T09:40:42;8.77;;;4.57;;
76604;SDS011;73179;50.978;16.998;2024-01-07T09:43:08;9.88;;;4.65;;
76604;SDS011;73179;50.978;16.998;2024-01-07T09:45:38;10.23;;;4.95;;
76604;SDS011;73179;50.978;16.998;2024-01-07T09:48:06;7.32;;;5.55;;
76604;SDS011;73179;50.978;16.998;2024-01-07T09:50:33;8.27;;;4.88;;
76604;SDS011;73179;50.978;16.998;2024-01-07T09:52:59;7.18;;;4.25;;
76604;SDS011;73179;50.978;16.998;2024-01-07T09:55:37;10.75;;;6.07;;
76604;SDS011;73179;50.978;16.998;2024-01-07T09:58:14;8.88;;;5.15;;
76604;SDS011;73179;50.978;16.998;2024-01-07T10:00:40;9.43;;;6.35;;
76604;SDS011;73179;50.978;16.998;2024-01-07T10:03:06;11.48;;;7.70;;
76604;SDS011;73179;50.978;16.998;2024-01-07T10:05:32;7.22;;;5.43;;
76604;SDS011;73179;50.978;16.998;2024-01-07T10:07:58;6.20;;;4.57;;
76604;SDS011;73179;50.978;16.998;2024-01-07T10:10:25;7.07;;;4.85;;
76604;SDS011;73179;50.978;16.998;2024-01-07T10:12:51;5.55;;;4.25;;
76604;SDS011;73179;50.978;16.998;2024-01-07T10:15:18;7.43;;;5.03;;
76604;SDS011;73179;50.978;16.998;2024-01-07T10:20:12;9.35;;;6.20;;
76604;SDS011;73179;50.978;16.998;2024-01-07T10:25:05;5.47;;;3.25;;
76604;SDS011;73179;50.978;16.998;2024-01-07T10:27:35;10.80;;;5.82;;
76604;SDS011;73179;50.978;16.998;2024-01-07T10:30:03;6.35;;;4.20;;
76604;SDS011;73179;50.978;16.998;2024-01-07T10:32:30;8.73;;;4.43;;
76604;SDS011;73179;50.978;16.998;2024-01-07T10:35:05;7.00;;;4.20;;
76604;SDS011;73179;50.978;16.998;2024-01-07T10:37:32;5.28;;;4.07;;
76604;SDS011;73179;50.978;16.998;2024-01-07T10:39:59;7.75;;;4.75;;
76604;SDS011;73179;50.978;16.998;2024-01-07T10:42:33;6.45;;;4.35;;
76604;SDS011;73179;50.978;16.998;2024-01-07T10:44:59;5.47;;;4.10;;
76604;SDS011;73179;50.978;16.998;2024-01-07T10:47:29;7.70;;;5.20;;
76604;SDS011;73179;50.978;16.998;2024-01-07T10:49:57;10.20;;;4.32;;
76604;SDS011;73179;50.978;16.998;2024-01-07T10:52:28;7.80;;;4.80;;
76604;SDS011;73179;50.978;16.998;2024-01-07T10:54:57;5.85;;;3.75;;
76604;SDS011;73179;50.978;16.998;2024-01-07T10:57:42;5.70;;;3.75;;
76604;SDS011;73179;50.978;16.998;2024-01-07T11:00:18;8.00;;;4.78;;
76604;SDS011;73179;50.978;16.998;2024-01-07T11:06:05;6.05;;;4.05;;
76604;SDS011;73179;50.978;16.998;2024-01-07T11:08:39;8.10;;;4.45;;
76604;SDS011;73179;50.978;16.998;2024-01-07T11:13:52;4.43;;;3.72;;
76604;SDS011;73179;50.978;16.998;2024-01-07T11:19:07;7.03;;;4.95;;
76604;SDS011;73179;50.978;16.998;2024-01-07T11:21:34;6.93;;;4.15;;
76604;SDS011;73179;50.978;16.998;2024-01-07T11:24:00;7.20;;;4.45;;
76604;SDS011;73179;50.978;16.998;2024-01-07T11:26:29;6.15;;;4.43;;
76604;SDS011;73179;50.978;16.998;2024-01-07T11:28:59;11.95;;;4.60;;
76604;SDS011;73179;50.978;16.998;2024-01-07T11:31:45;11.75;;;4.93;;
76604;SDS011;73179;50.978;16.998;2024-01-07T11:34:38;9.50;;;5.68;;
76604;SDS011;73179;50.978;16.998;2024-01-07T11:37:07;7.85;;;5.60;;
76604;SDS011;73179;50.978;16.998;2024-01-07T11:39:35;8.02;;;5.32;;
76604;SDS011;73179;50.978;16.998;2024-01-07T11:44:29;9.52;;;4.95;;
76604;SDS011;73179;50.978;16.998;2024-01-07T11:46:58;7.63;;;5.10;;
76604;SDS011;73179;50.978;16.998;2024-01-07T11:49:25;7.75;;;5.38;;
76604;SDS011;73179;50.978;16.998;2024-01-07T11:51:54;8.07;;;4.85;;
76604;SDS011;73179;50.978;16.998;2024-01-07T11:54:22;8.88;;;5.78;;
76604;SDS011;73179;50.978;16.998;2024-01-07T11:56:48;7.20;;;4.78;;
76604;SDS011;73179;50.978;16.998;2024-01-07T11:59:15;11.18;;;6.30;;
76604;SDS011;73179;50.978;16.998;2024-01-07T12:01:43;9.10;;;5.88;;
76604;SDS011;73179;50.978;16.998;2024-01-07T12:04:10;9.57;;;4.85;;
76604;SDS011;73179;50.978;16.998;2024-01-07T12:06:37;11.07;;;6.07;;
76604;SDS011;73179;50.978;16.998;2024-01-07T12:09:04;6.72;;;5.38;;
76604;SDS011;73179;50.978;16.998;2024-01-07T12:11:31;9.32;;;5.75;;
76604;SDS011;73179;50.978;16.998;2024-01-07T12:13:59;7.68;;;5.63;;
76604;SDS011;73179;50.978;16.998;2024-01-07T12:16:26;11.50;;;6.32;;
76604;SDS011;73179;50.978;16.998;2024-01-07T12:18:52;10.15;;;6.15;;
76604;SDS011;73179;50.978;16.998;2024-01-07T12:21:19;7.10;;;5.18;;
76604;SDS011;73179;50.978;16.998;2024-01-07T12:23:48;8.18;;;4.85;;
76604;SDS011;73179;50.978;16.998;2024-01-07T12:26:15;11.13;;;7.10;;
76604;SDS011;73179;50.978;16.998;2024-01-07T12:28:42;12.45;;;7.72;;
76604;SDS011;73179;50.978;16.998;2024-01-07T12:31:09;10.48;;;5.93;;
76604;SDS011;73179;50.978;16.998;2024-01-07T12:33:39;7.80;;;6.05;;
76604;SDS011;73179;50.978;16.998;2024-01-07T12:36:06;8.75;;;6.57;;
76604;SDS011;73179;50.978;16.998;2024-01-07T12:38:33;13.02;;;6.75;;
76604;SDS011;73179;50.978;16.998;2024-01-07T12:41:02;13.80;;;7.55;;
76604;SDS011;73179;50.978;16.998;2024-01-07T12:43:29;11.15;;;6.10;;
76604;SDS011;73179;50.978;16.998;2024-01-07T12:48:22;5.82;;;5.07;;
76604;SDS011;73179;50.978;16.998;2024-01-07T12:53:14;10.85;;;5.85;;
76604;SDS011;73179;50.978;16.998;2024-01-07T12:58:06;5.55;;;5.03;;
76604;SDS011;73179;50.978;16.998;2024-01-07T13:00:33;7.32;;;6.28;;
76604;SDS011;73179;50.978;16.998;2024-01-07T13:03:01;10.77;;;6.57;;
76604;SDS011;73179;50.978;16.998;2024-01-07T13:07:53;10.88;;;6.40;;
76604;SDS011;73179;50.978;16.998;2024-01-07T13:10:22;8.75;;;6.80;;
76604;SDS011;73179;50.978;16.998;2024-01-07T13:12:50;13.18;;;8.45;;
76604;SDS011;73179;50.978;16.998;2024-01-07T13:15:16;13.85;;;6.03;;
76604;SDS011;73179;50.978;16.998;2024-01-07T13:17:42;12.90;;;6.15;;
76604;SDS011;73179;50.978;16.998;2024-01-07T13:20:09;12.32;;;7.95;;
76604;SDS011;73179;50.978;16.998;2024-01-07T13:22:38;10.65;;;6.90;;
76604;SDS011;73179;50.978;16.998;2024-01-07T13:25:07;14.85;;;7.43;;
76604;SDS011;73179;50.978;16.998;2024-01-07T13:27:34;9.30;;;5.45;;
76604;SDS011;73179;50.978;16.998;2024-01-07T13:30:00;12.73;;;7.18;;
76604;SDS011;73179;50.978;16.998;2024-01-07T13:32:26;12.73;;;7.85;;
76604;SDS011;73179;50.978;16.998;2024-01-07T13:34:52;7.70;;;5.57;;
76604;SDS011;73179;50.978;16.998;2024-01-07T13:37:19;11.05;;;6.40;;
76604;SDS011;73179;50.978;16.998;2024-01-07T13:39:45;8.75;;;6.38;;
76604;SDS011;73179;50.978;16.998;2024-01-07T13:42:12;10.98;;;7.07;;
76604;SDS011;73179;50.978;16.998;2024-01-07T13:47:12;6.53;;;4.35;;
76604;SDS011;73179;50.978;16.998;2024-01-07T13:49:43;10.48;;;6.97;;
76604;SDS011;73179;50.978;16.998;2024-01-07T13:52:13;12.07;;;6.82;;
76604;SDS011;73179;50.978;16.998;2024-01-07T13:54:39;8.20;;;5.72;;
76604;SDS011;73179;50.978;16.998;2024-01-07T13:57:06;8.05;;;5.55;;
76604;SDS011;73179;50.978;16.998;2024-01-07T14:01:58;10.23;;;5.78;;
76604;SDS011;73179;50.978;16.998;2024-01-07T14:04:25;13.65;;;7.50;;
76604;SDS011;73179;50.978;16.998;2024-01-07T14:06:55;9.48;;;6.68;;
76604;SDS011;73179;50.978;16.998;2024-01-07T14:09:27;12.77;;;7.65;;
76604;SDS011;73179;50.978;16.998;2024-01-07T14:12:04;9.95;;;6.90;;
76604;SDS011;73179;50.978;16.998;2024-01-07T14:14:32;13.07;;;6.80;;
76604;SDS011;73179;50.978;16.998;2024-01-07T14:17:01;10.10;;;5.93;;
76604;SDS011;73179;50.978;16.998;2024-01-07T14:19:27;10.80;;;5.72;;
76604;SDS011;73179;50.978;16.998;2024-01-07T14:21:53;12.32;;;6.90;;
76604;SDS011;73179;50.978;16.998;2024-01-07T14:24:20;11.65;;;6.10;;
76604;SDS011;73179;50.978;16.998;2024-01-07T14:26:46;8.48;;;6.05;;
76604;SDS011;73179;50.978;16.998;2024-01-07T14:29:12;9.40;;;5.03;;
76604;SDS011;73179;50.978;16.998;2024-01-07T14:31:39;10.48;;;6.43;;
76604;SDS011;73179;50.978;16.998;2024-01-07T14:34:05;12.77;;;9.38;;
76604;SDS011;73179;50.978;16.998;2024-01-07T14:36:32;9.75;;;6.38;;
76604;SDS011;73179;50.978;16.998;2024-01-07T14:38:58;12.30;;;7.32;;
76604;SDS011;73179;50.978;16.998;2024-01-07T14:41:24;15.43;;;7.88;;
76604;SDS011;73179;50.978;16.998;2024-01-07T14:43:50;17.48;;;9.60;;
76604;SDS011;73179;50.978;16.998;2024-01-07T14:46:17;11.63;;;6.40;;
76604;SDS011;73179;50.978;16.998;2024-01-07T14:51:11;12.90;;;6.70;;
76604;SDS011;73179;50.978;16.998;2024-01-07T14:56:03;10.95;;;6.20;;
76604;SDS011;73179;50.978;16.998;2024-01-07T14:58:29;13.00;;;6.57;;
76604;SDS011;73179;50.978;16.998;2024-01-07T15:00:56;14.43;;;7.47;;
76604;SDS011;73179;50.978;16.998;2024-01-07T15:03:24;15.10;;;7.70;;
76604;SDS011;73179;50.978;16.998;2024-01-07T15:05:56;16.58;;;8.77;;
76604;SDS011;73179;50.978;16.998;2024-01-07T15:08:22;13.00;;;7.85;;
76604;SDS011;73179;50.978;16.998;2024-01-07T15:10:48;12.02;;;7.85;;
76604;SDS011;73179;50.978;16.998;2024-01-07T15:15:41;18.85;;;8.27;;
76604;SDS011;73179;50.978;16.998;2024-01-07T15:18:07;12.02;;;7.05;;
76604;SDS011;73179;50.978;16.998;2024-01-07T15:20:33;12.45;;;7.47;;
76604;SDS011;73179;50.978;16.998;2024-01-07T15:22:59;11.68;;;7.13;;
76604;SDS011;73179;50.978;16.998;2024-01-07T15:25:25;17.48;;;9.95;;
76604;SDS011;73179;50.978;16.998;2024-01-07T15:27:51;9.27;;;6.28;;
76604;SDS011;73179;50.978;16.998;2024-01-07T15:30:17;11.27;;;6.30;;
76604;SDS011;73179;50.978;16.998;2024-01-07T15:32:43;12.52;;;7.57;;
76604;SDS011;73179;50.978;16.998;2024-01-07T15:35:10;14.38;;;8.98;;
76604;SDS011;73179;50.978;16.998;2024-01-07T15:37:36;15.95;;;9.05;;
76604;SDS011;73179;50.978;16.998;2024-01-07T15:40:02;11.13;;;7.45;;
76604;SDS011;73179;50.978;16.998;2024-01-07T15:42:28;15.43;;;9.18;;
76604;SDS011;73179;50.978;16.998;2024-01-07T15:44:55;10.77;;;8.10;;
76604;SDS011;73179;50.978;16.998;2024-01-07T15:47:21;12.68;;;7.95;;
76604;SDS011;73179;50.978;16.998;2024-01-07T15:49:49;20.20;;;11.13;;
76604;SDS011;73179;50.978;16.998;2024-01-07T15:52:15;16.73;;;9.98;;
76604;SDS011;73179;50.978;16.998;2024-01-07T15:54:41;12.25;;;9.18;;
76604;SDS011;73179;50.978;16.998;2024-01-07T15:57:07;17.27;;;9.30;;
76604;SDS011;73179;50.978;16.998;2024-01-07T15:59:33;28.92;;;9.57;;
76604;SDS011;73179;50.978;16.998;2024-01-07T16:01:59;16.17;;;8.95;;
76604;SDS011;73179;50.978;16.998;2024-01-07T16:04:26;16.00;;;9.60;;
76604;SDS011;73179;50.978;16.998;2024-01-07T16:06:53;11.82;;;7.57;;
76604;SDS011;73179;50.978;16.998;2024-01-07T16:09:19;21.00;;;12.82;;
76604;SDS011;73179;50.978;16.998;2024-01-07T16:11:47;15.38;;;10.13;;
76604;SDS011;73179;50.978;16.998;2024-01-07T16:14:14;21.17;;;11.45;;
76604;SDS011;73179;50.978;16.998;2024-01-07T16:16:41;16.98;;;10.75;;
76604;SDS011;73179;50.978;16.998;2024-01-07T16:19:08;20.83;;;10.48;;
76604;SDS011;73179;50.978;16.998;2024-01-07T16:21:37;18.13;;;11.95;;
76604;SDS011;73179;50.978;16.998;2024-01-07T16:24:04;22.23;;;12.68;;
76604;SDS011;73179;50.978;16.998;2024-01-07T16:26:31;17.58;;;11.45;;
76604;SDS011;73179;50.978;16.998;2024-01-07T16:28:57;21.17;;;10.18;;
76604;SDS011;73179;50.978;16.998;2024-01-07T16:31:23;15.07;;;10.48;;
76604;SDS011;73179;50.978;16.998;2024-01-07T16:33:50;14.93;;;9.00;;
76604;SDS011;73179;50.978;16.998;2024-01-07T16:36:16;16.48;;;10.27;;
76604;SDS011;73179;50.978;16.998;2024-01-07T16:38:42;21.77;;;11.52;;
76604;SDS011;73179;50.978;16.998;2024-01-07T16:41:08;20.25;;;11.85;;
76604;SDS011;73179;50.978;16.998;2024-01-07T16:43:35;21.10;;;12.68;;
76604;SDS011;73179;50.978;16.998;2024-01-07T16:46:04;18.70;;;11.15;;
76604;SDS011;73179;50.978;16.998;2024-01-07T16:48:31;18.58;;;10.27;;